createdAt,value
2017-10-27T00:00:08.962Z,930.33
2017-10-27T00:00:36.858Z,930.33
2017-10-27T00:01:04.647Z,930.34
2017-10-27T00:01:32.581Z,930.33
2017-10-27T00:02:00.608Z,930.34
2017-10-27T00:02:28.738Z,930.36
2017-10-27T00:02:56.767Z,930.37
2017-10-27T00:03:24.767Z,930.37
2017-10-27T00:03:52.899Z,930.39
2017-10-27T00:04:21.034Z,930.35
2017-10-27T00:04:49.182Z,930.37
2017-10-27T00:05:17.168Z,930.36
2017-10-27T00:05:45.299Z,930.39
2017-10-27T00:06:13.298Z,930.37
2017-10-27T00:06:41.326Z,930.37
2017-10-27T00:07:09.436Z,930.4
2017-10-27T00:07:37.559Z,930.41
2017-10-27T00:08:05.673Z,930.37
2017-10-27T00:08:33.780Z,930.38
2017-10-27T00:09:01.711Z,930.38
2017-10-27T00:09:29.601Z,930.39
2017-10-27T00:09:57.602Z,930.41
2017-10-27T00:10:26.302Z,930.4
2017-10-27T00:10:54.419Z,930.41
2017-10-27T00:11:22.452Z,930.37
2017-10-27T00:11:50.453Z,930.4
2017-10-27T00:12:18.448Z,930.42
2017-10-27T00:12:46.567Z,930.37
2017-10-27T00:13:14.711Z,930.4
2017-10-27T00:13:42.634Z,930.37
2017-10-27T00:14:10.769Z,930.4
2017-10-27T00:14:38.612Z,930.39
2017-10-27T00:15:06.525Z,930.38
2017-10-27T00:15:34.531Z,930.41
2017-10-27T00:16:02.696Z,930.42
2017-10-27T00:16:30.705Z,930.39
2017-10-27T00:16:58.710Z,930.39
2017-10-27T00:17:26.855Z,930.38
2017-10-27T00:17:54.779Z,930.4
2017-10-27T00:18:22.890Z,930.4
2017-10-27T00:18:50.889Z,930.43
2017-10-27T00:19:18.995Z,930.47
2017-10-27T00:19:47.120Z,930.43
2017-10-27T00:20:15.159Z,930.45
2017-10-27T00:20:43.244Z,930.48
2017-10-27T00:21:11.149Z,930.48
2017-10-27T00:21:39.105Z,930.46
2017-10-27T00:22:07.276Z,930.48
2017-10-27T00:22:35.278Z,930.49
2017-10-27T00:23:03.404Z,930.5
2017-10-27T00:23:31.521Z,930.5
2017-10-27T00:23:59.541Z,930.47
2017-10-27T00:24:27.655Z,930.47
2017-10-27T00:24:55.675Z,930.48
2017-10-27T00:25:23.979Z,930.45
2017-10-27T00:25:51.999Z,930.41
2017-10-27T00:26:19.858Z,930.4
2017-10-27T00:26:47.964Z,930.38
2017-10-27T00:27:16.044Z,930.37
2017-10-27T00:27:44.156Z,930.35
2017-10-27T00:28:12.098Z,930.37
2017-10-27T00:28:40.148Z,930.36
2017-10-27T00:29:08.079Z,930.35
2017-10-27T00:29:36.444Z,930.34
2017-10-27T00:30:04.553Z,930.37
2017-10-27T00:30:32.585Z,930.34
2017-10-27T00:31:00.706Z,930.31
2017-10-27T00:31:28.838Z,930.39
2017-10-27T00:31:56.843Z,930.4
2017-10-27T00:32:24.857Z,930.37
2017-10-27T00:32:52.888Z,930.42
2017-10-27T00:33:20.992Z,930.44
2017-10-27T00:33:49.018Z,930.44
2017-10-27T00:34:17.142Z,930.42
2017-10-27T00:34:45.191Z,930.46
2017-10-27T00:35:13.326Z,930.47
2017-10-27T00:35:41.343Z,930.46
2017-10-27T00:36:09.180Z,930.48
2017-10-27T00:36:37.298Z,930.5
2017-10-27T00:37:05.420Z,930.5
2017-10-27T00:37:33.458Z,930.49
2017-10-27T00:38:01.560Z,930.47
2017-10-27T00:38:29.645Z,930.51
2017-10-27T00:38:57.706Z,930.48
2017-10-27T00:39:25.706Z,930.53
2017-10-27T00:39:53.722Z,930.54
2017-10-27T00:40:21.657Z,930.52
2017-10-27T00:40:49.671Z,930.53
2017-10-27T00:41:17.705Z,930.52
2017-10-27T00:41:46.218Z,930.53
2017-10-27T00:42:14.082Z,930.53
2017-10-27T00:42:42.196Z,930.49
2017-10-27T00:43:10.327Z,930.51
2017-10-27T00:43:38.250Z,930.5
2017-10-27T00:44:06.229Z,930.48
2017-10-27T00:44:34.111Z,930.45
2017-10-27T00:45:02.228Z,930.43
2017-10-27T00:45:30.184Z,930.45
2017-10-27T00:45:58.112Z,930.44
2017-10-27T00:46:26.104Z,930.41
2017-10-27T00:46:54.018Z,930.4
2017-10-27T00:47:21.918Z,930.4
2017-10-27T00:47:49.720Z,930.4
2017-10-27T00:48:17.748Z,930.41
2017-10-27T00:48:45.769Z,930.44
2017-10-27T00:49:13.721Z,930.46
2017-10-27T00:49:41.807Z,930.43
2017-10-27T00:50:09.801Z,930.48
2017-10-27T00:50:37.782Z,930.45
2017-10-27T00:51:05.835Z,930.45
2017-10-27T00:51:33.737Z,930.48
2017-10-27T00:52:01.764Z,930.5
2017-10-27T00:52:29.705Z,930.48
2017-10-27T00:52:57.636Z,930.47
2017-10-27T00:53:25.597Z,930.5
2017-10-27T00:53:53.416Z,930.49
2017-10-27T00:54:21.327Z,930.5
2017-10-27T00:54:49.447Z,930.51
2017-10-27T00:55:17.672Z,930.52
2017-10-27T00:55:45.921Z,930.53
2017-10-27T00:56:14.008Z,930.51
2017-10-27T00:56:42.172Z,930.55
2017-10-27T00:57:10.457Z,930.57
2017-10-27T00:57:38.632Z,930.57
2017-10-27T00:58:06.525Z,930.58
2017-10-27T00:58:34.355Z,930.55
2017-10-27T00:59:02.363Z,930.57
2017-10-27T00:59:30.412Z,930.58
2017-10-27T00:59:58.412Z,930.58
2017-10-27T01:00:26.295Z,930.57
2017-10-27T01:00:54.533Z,930.56
2017-10-27T01:01:22.565Z,930.54
2017-10-27T01:01:50.470Z,930.58
2017-10-27T01:02:18.600Z,930.6
2017-10-27T01:02:46.716Z,930.55
2017-10-27T01:03:14.745Z,930.56
2017-10-27T01:03:42.864Z,930.55
2017-10-27T01:04:10.982Z,930.53
2017-10-27T01:04:39.245Z,930.56
2017-10-27T01:05:07.428Z,930.54
2017-10-27T01:05:35.656Z,930.53
2017-10-27T01:06:03.832Z,930.55
2017-10-27T01:06:31.910Z,930.53
2017-10-27T01:06:59.952Z,930.54
2017-10-27T01:07:28.063Z,930.52
2017-10-27T01:07:56.091Z,930.53
2017-10-27T01:08:24.015Z,930.51
2017-10-27T01:08:52.010Z,930.49
2017-10-27T01:09:19.938Z,930.48
2017-10-27T01:09:47.972Z,930.47
2017-10-27T01:10:15.791Z,930.48
2017-10-27T01:10:43.895Z,930.5
2017-10-27T01:11:11.999Z,930.48
2017-10-27T01:11:39.930Z,930.48
2017-10-27T01:12:07.852Z,930.46
2017-10-27T01:12:35.886Z,930.46
2017-10-27T01:13:03.708Z,930.48
2017-10-27T01:13:31.847Z,930.48
2017-10-27T01:13:59.945Z,930.47
2017-10-27T01:14:28.094Z,930.42
2017-10-27T01:14:56.057Z,930.38
2017-10-27T01:15:24.102Z,930.38
2017-10-27T01:15:52.144Z,930.4
2017-10-27T01:16:19.970Z,930.37
2017-10-27T01:16:48.083Z,930.33
2017-10-27T01:17:16.087Z,930.33
2017-10-27T01:17:44.203Z,930.28
2017-10-27T01:18:12.205Z,930.23
2017-10-27T01:18:40.339Z,930.22
2017-10-27T01:19:08.304Z,930.22
2017-10-27T01:19:37.137Z,930.19
2017-10-27T01:20:05.034Z,930.21
2017-10-27T01:20:32.945Z,930.17
2017-10-27T01:21:01.066Z,930.17
2017-10-27T01:21:29.201Z,930.16
2017-10-27T01:21:57.405Z,930.14
2017-10-27T01:22:25.323Z,930.13
2017-10-27T01:22:53.248Z,930.13
2017-10-27T01:23:21.339Z,930.14
2017-10-27T01:23:49.445Z,930.13
2017-10-27T01:24:17.483Z,930.15
2017-10-27T01:24:45.514Z,930.14
2017-10-27T01:25:13.429Z,930.12
2017-10-27T01:25:41.553Z,930.11
2017-10-27T01:26:09.656Z,930.09
2017-10-27T01:26:37.664Z,930.1
2017-10-27T01:27:05.706Z,930.1
2017-10-27T01:27:33.881Z,930.11
2017-10-27T01:28:02.083Z,930.08
2017-10-27T01:28:30.024Z,930.13
2017-10-27T01:28:58.047Z,930.09
2017-10-27T01:29:26.079Z,930.12
2017-10-27T01:29:54.102Z,930.12
2017-10-27T01:30:22.101Z,930.14
2017-10-27T01:30:50.546Z,930.18
2017-10-27T01:31:18.377Z,930.17
2017-10-27T01:31:46.434Z,930.2
2017-10-27T01:32:14.466Z,930.19
2017-10-27T01:32:42.402Z,930.21
2017-10-27T01:33:10.516Z,930.18
2017-10-27T01:33:38.427Z,930.21
2017-10-27T01:34:06.372Z,930.19
2017-10-27T01:34:34.294Z,930.21
2017-10-27T01:35:02.310Z,930.22
2017-10-27T01:35:30.219Z,930.2
2017-10-27T01:35:58.055Z,930.23
2017-10-27T01:36:26.075Z,930.16
2017-10-27T01:36:54.090Z,930.16
2017-10-27T01:37:22.276Z,930.16
2017-10-27T01:37:50.447Z,930.19
2017-10-27T01:38:18.352Z,930.16
2017-10-27T01:38:46.395Z,930.13
2017-10-27T01:39:14.399Z,930.15
2017-10-27T01:39:42.197Z,930.17
2017-10-27T01:40:10.207Z,930.16
2017-10-27T01:40:38.259Z,930.14
2017-10-27T01:41:06.227Z,930.14
2017-10-27T01:41:34.352Z,930.1
2017-10-27T01:42:02.379Z,930.11
2017-10-27T01:42:30.181Z,930.07
2017-10-27T01:42:58.211Z,930.07
2017-10-27T01:43:26.135Z,930.05
2017-10-27T01:43:54.174Z,930.09
2017-10-27T01:44:22.331Z,930.06
2017-10-27T01:44:50.155Z,930.03
2017-10-27T01:45:18.334Z,930.01
2017-10-27T01:45:47.198Z,930.03
2017-10-27T01:46:15.295Z,930.01
2017-10-27T01:46:43.334Z,930.05
2017-10-27T01:47:11.389Z,930.04
2017-10-27T01:47:39.606Z,930.02
2017-10-27T01:48:07.796Z,930.02
2017-10-27T01:48:35.809Z,929.99
2017-10-27T01:49:03.915Z,929.99
2017-10-27T01:49:31.957Z,929.99
2017-10-27T01:49:59.953Z,929.99
2017-10-27T01:50:27.854Z,929.95
2017-10-27T01:50:55.859Z,930
2017-10-27T01:51:23.969Z,929.96
2017-10-27T01:51:52.148Z,929.97
2017-10-27T01:52:20.231Z,929.99
2017-10-27T01:52:48.356Z,929.99
2017-10-27T01:53:16.371Z,929.99
2017-10-27T01:53:44.253Z,930.02
2017-10-27T01:54:12.369Z,930.03
2017-10-27T01:54:40.468Z,930.01
2017-10-27T01:55:08.930Z,930.04
2017-10-27T01:55:37.021Z,930.04
2017-10-27T01:56:05.165Z,930.07
2017-10-27T01:56:33.067Z,930.09
2017-10-27T01:57:01.206Z,930.09
2017-10-27T01:57:29.328Z,930.1
2017-10-27T01:57:57.245Z,930.03
2017-10-27T01:58:26.025Z,930.06
2017-10-27T01:58:54.121Z,930.03
2017-10-27T01:59:22.064Z,930.01
2017-10-27T01:59:49.874Z,930.04
2017-10-27T02:00:17.934Z,930.02
2017-10-27T02:00:46.023Z,930.04
2017-10-27T02:01:14.236Z,930.02
2017-10-27T02:01:42.352Z,930.04
2017-10-27T02:02:10.513Z,930.01
2017-10-27T02:02:38.626Z,929.99
2017-10-27T02:03:07.629Z,929.99
2017-10-27T02:03:36.020Z,929.96
2017-10-27T02:04:04.217Z,929.94
2017-10-27T02:04:32.503Z,929.96
2017-10-27T02:05:00.526Z,929.97
2017-10-27T02:05:28.721Z,929.95
2017-10-27T02:05:56.990Z,930
2017-10-27T02:06:24.990Z,929.97
2017-10-27T02:06:52.915Z,929.97
2017-10-27T02:07:20.750Z,929.99
2017-10-27T02:07:48.724Z,929.97
2017-10-27T02:08:16.761Z,929.99
2017-10-27T02:08:44.867Z,929.97
2017-10-27T02:09:12.880Z,929.96
2017-10-27T02:09:40.973Z,929.93
2017-10-27T02:10:08.987Z,929.97
2017-10-27T02:10:37.009Z,929.98
2017-10-27T02:11:05.111Z,929.99
2017-10-27T02:11:33.032Z,930.02
2017-10-27T02:12:00.959Z,930.03
2017-10-27T02:12:29.081Z,929.97
2017-10-27T02:12:57.111Z,930.03
2017-10-27T02:13:25.101Z,930.07
2017-10-27T02:13:53.130Z,930.03
2017-10-27T02:14:21.690Z,930.11
2017-10-27T02:14:49.707Z,930.06
2017-10-27T02:15:17.592Z,930.05
2017-10-27T02:15:45.509Z,930.05
2017-10-27T02:16:13.525Z,930
2017-10-27T02:16:41.654Z,930.07
2017-10-27T02:17:09.757Z,930
2017-10-27T02:17:37.775Z,930.02
2017-10-27T02:18:05.696Z,930
2017-10-27T02:18:33.727Z,930
2017-10-27T02:19:01.849Z,930.01
2017-10-27T02:19:29.756Z,929.95
2017-10-27T02:19:57.790Z,929.98
2017-10-27T02:20:25.803Z,929.97
2017-10-27T02:20:53.846Z,929.96
2017-10-27T02:21:21.764Z,929.94
2017-10-27T02:21:49.894Z,929.95
2017-10-27T02:22:17.920Z,929.95
2017-10-27T02:22:46.040Z,929.94
2017-10-27T02:23:14.069Z,929.9
2017-10-27T02:23:41.991Z,929.91
2017-10-27T02:24:10.016Z,929.89
2017-10-27T02:24:38.029Z,929.9
2017-10-27T02:25:06.033Z,929.88
2017-10-27T02:25:34.150Z,929.87
2017-10-27T02:26:02.281Z,929.88
2017-10-27T02:26:30.792Z,929.85
2017-10-27T02:26:58.936Z,929.86
2017-10-27T02:27:27.275Z,929.84
2017-10-27T02:27:55.358Z,929.84
2017-10-27T02:28:23.471Z,929.86
2017-10-27T02:28:51.555Z,929.87
2017-10-27T02:29:19.494Z,929.8
2017-10-27T02:29:47.510Z,929.83
2017-10-27T02:30:15.627Z,929.81
2017-10-27T02:30:43.766Z,929.81
2017-10-27T02:31:11.797Z,929.81
2017-10-27T02:31:39.799Z,929.78
2017-10-27T02:32:07.840Z,929.79
2017-10-27T02:32:35.748Z,929.76
2017-10-27T02:33:03.756Z,929.76
2017-10-27T02:33:31.882Z,929.73
2017-10-27T02:34:00.008Z,929.77
2017-10-27T02:34:28.030Z,929.74
2017-10-27T02:34:56.041Z,929.72
2017-10-27T02:35:24.280Z,929.79
2017-10-27T02:35:52.189Z,929.77
2017-10-27T02:36:20.199Z,929.77
2017-10-27T02:36:48.113Z,929.8
2017-10-27T02:37:16.017Z,929.78
2017-10-27T02:37:44.107Z,929.79
2017-10-27T02:38:12.016Z,929.78
2017-10-27T02:38:39.955Z,929.75
2017-10-27T02:39:07.984Z,929.76
2017-10-27T02:39:36.007Z,929.74
2017-10-27T02:40:04.026Z,929.73
2017-10-27T02:40:31.981Z,929.75
2017-10-27T02:41:00.084Z,929.69
2017-10-27T02:41:28.229Z,929.67
2017-10-27T02:41:56.347Z,929.68
2017-10-27T02:42:24.356Z,929.65
2017-10-27T02:42:52.396Z,929.64
2017-10-27T02:43:20.393Z,929.64
2017-10-27T02:43:48.302Z,929.65
2017-10-27T02:44:16.312Z,929.59
2017-10-27T02:44:44.237Z,929.57
2017-10-27T02:45:12.145Z,929.58
2017-10-27T02:45:40.194Z,929.56
2017-10-27T02:46:08.278Z,929.59
2017-10-27T02:46:36.292Z,929.56
2017-10-27T02:47:04.294Z,929.56
2017-10-27T02:47:32.395Z,929.58
2017-10-27T02:48:00.446Z,929.59
2017-10-27T02:48:28.575Z,929.59
2017-10-27T02:48:56.592Z,929.6
2017-10-27T02:49:24.703Z,929.57
2017-10-27T02:49:52.811Z,929.55
2017-10-27T02:50:20.740Z,929.51
2017-10-27T02:50:48.877Z,929.53
2017-10-27T02:51:17.202Z,929.54
2017-10-27T02:51:45.342Z,929.54
2017-10-27T02:52:13.398Z,929.52
2017-10-27T02:52:41.487Z,929.52
2017-10-27T02:53:09.500Z,929.52
2017-10-27T02:53:37.441Z,929.51
2017-10-27T02:54:05.537Z,929.49
2017-10-27T02:54:33.640Z,929.48
2017-10-27T02:55:01.442Z,929.49
2017-10-27T02:55:29.341Z,929.47
2017-10-27T02:55:57.458Z,929.45
2017-10-27T02:56:25.351Z,929.43
2017-10-27T02:56:53.611Z,929.44
2017-10-27T02:57:21.731Z,929.44
2017-10-27T02:57:49.660Z,929.43
2017-10-27T02:58:17.563Z,929.43
2017-10-27T02:58:45.592Z,929.42
2017-10-27T02:59:13.604Z,929.39
2017-10-27T02:59:41.726Z,929.38
2017-10-27T03:00:09.843Z,929.36
2017-10-27T03:00:37.759Z,929.39
2017-10-27T03:01:05.765Z,929.37
2017-10-27T03:01:33.784Z,929.36
2017-10-27T03:02:01.901Z,929.37
2017-10-27T03:02:29.828Z,929.36
2017-10-27T03:02:57.841Z,929.31
2017-10-27T03:03:25.942Z,929.35
2017-10-27T03:03:54.093Z,929.36
2017-10-27T03:04:22.168Z,929.33
2017-10-27T03:04:50.194Z,929.36
2017-10-27T03:05:18.295Z,929.29
2017-10-27T03:05:46.289Z,929.36
2017-10-27T03:06:14.393Z,929.32
2017-10-27T03:06:42.291Z,929.34
2017-10-27T03:07:10.304Z,929.33
2017-10-27T03:07:38.200Z,929.28
2017-10-27T03:08:06.210Z,929.3
2017-10-27T03:08:34.243Z,929.31
2017-10-27T03:09:02.592Z,929.3
2017-10-27T03:09:30.497Z,929.3
2017-10-27T03:09:58.525Z,929.31
2017-10-27T03:10:26.368Z,929.29
2017-10-27T03:10:54.386Z,929.29
2017-10-27T03:11:22.415Z,929.25
2017-10-27T03:11:50.324Z,929.23
2017-10-27T03:12:18.442Z,929.23
2017-10-27T03:12:46.556Z,929.21
2017-10-27T03:13:14.472Z,929.12
2017-10-27T03:13:42.504Z,929.11
2017-10-27T03:14:10.607Z,929.08
2017-10-27T03:14:38.624Z,929.09
2017-10-27T03:15:06.550Z,929.06
2017-10-27T03:15:34.568Z,929.05
2017-10-27T03:16:02.624Z,929.02
2017-10-27T03:16:30.418Z,929.1
2017-10-27T03:16:58.862Z,929.11
2017-10-27T03:17:26.795Z,929.09
2017-10-27T03:17:54.677Z,929.13
2017-10-27T03:18:22.661Z,929.12
2017-10-27T03:18:50.767Z,929.11
2017-10-27T03:19:18.676Z,929.1
2017-10-27T03:19:46.792Z,929.13
2017-10-27T03:20:14.815Z,929.11
2017-10-27T03:20:42.822Z,929.07
2017-10-27T03:21:10.645Z,929.06
2017-10-27T03:21:38.716Z,929.02
2017-10-27T03:22:06.740Z,929
2017-10-27T03:22:34.733Z,928.96
2017-10-27T03:23:02.748Z,928.94
2017-10-27T03:23:30.839Z,928.93
2017-10-27T03:23:58.922Z,928.92
2017-10-27T03:24:26.958Z,928.88
2017-10-27T03:24:54.778Z,928.88
2017-10-27T03:25:22.816Z,928.9
2017-10-27T03:25:50.844Z,928.84
2017-10-27T03:26:18.928Z,928.86
2017-10-27T03:26:47.072Z,928.79
2017-10-27T03:27:15.190Z,928.84
2017-10-27T03:27:43.304Z,928.78
2017-10-27T03:28:11.248Z,928.82
2017-10-27T03:28:39.170Z,928.77
2017-10-27T03:29:07.304Z,928.78
2017-10-27T03:29:35.445Z,928.8
2017-10-27T03:30:03.560Z,928.76
2017-10-27T03:30:31.476Z,928.77
2017-10-27T03:30:59.574Z,928.72
2017-10-27T03:31:27.672Z,928.75
2017-10-27T03:31:55.797Z,928.74
2017-10-27T03:32:23.831Z,928.78
2017-10-27T03:32:51.838Z,928.73
2017-10-27T03:33:19.863Z,928.7
2017-10-27T03:33:47.858Z,928.73
2017-10-27T03:34:15.875Z,928.68
2017-10-27T03:34:44.017Z,928.7
2017-10-27T03:35:12.123Z,928.67
2017-10-27T03:35:40.153Z,928.68
2017-10-27T03:36:08.161Z,928.69
2017-10-27T03:36:36.272Z,928.65
2017-10-27T03:37:04.304Z,928.63
2017-10-27T03:37:32.268Z,928.66
2017-10-27T03:38:00.268Z,928.65
2017-10-27T03:38:28.358Z,928.64
2017-10-27T03:38:56.457Z,928.66
2017-10-27T03:39:24.432Z,928.67
2017-10-27T03:39:52.538Z,928.66
2017-10-27T03:40:20.555Z,928.64
2017-10-27T03:40:48.673Z,928.64
2017-10-27T03:41:16.684Z,928.63
2017-10-27T03:41:44.700Z,928.62
2017-10-27T03:42:12.614Z,928.64
2017-10-27T03:42:41.169Z,928.62
2017-10-27T03:43:08.974Z,928.65
2017-10-27T03:43:36.884Z,928.6
2017-10-27T03:44:05.015Z,928.59
2017-10-27T03:44:33.131Z,928.61
2017-10-27T03:45:01.047Z,928.63
2017-10-27T03:45:29.136Z,928.64
2017-10-27T03:45:57.060Z,928.61
2017-10-27T03:46:25.051Z,928.6
2017-10-27T03:46:53.085Z,928.64
2017-10-27T03:47:21.201Z,928.64
2017-10-27T03:47:49.236Z,928.64
2017-10-27T03:48:17.249Z,928.67
2017-10-27T03:48:45.031Z,928.69
2017-10-27T03:49:12.934Z,928.68
2017-10-27T03:49:41.513Z,928.66
2017-10-27T03:50:09.557Z,928.65
2017-10-27T03:50:37.697Z,928.6
2017-10-27T03:51:05.419Z,928.65
2017-10-27T03:51:33.452Z,928.62
2017-10-27T03:52:01.490Z,928.61
2017-10-27T03:52:29.482Z,928.62
2017-10-27T03:52:57.506Z,928.59
2017-10-27T03:53:25.419Z,928.6
2017-10-27T03:53:53.354Z,928.58
2017-10-27T03:54:21.389Z,928.57
2017-10-27T03:54:49.128Z,928.54
2017-10-27T03:55:17.228Z,928.52
2017-10-27T03:55:45.237Z,928.51
2017-10-27T03:56:13.244Z,928.51
2017-10-27T03:56:41.355Z,928.5
2017-10-27T03:57:09.461Z,928.53
2017-10-27T03:57:37.621Z,928.53
2017-10-27T03:58:05.739Z,928.48
2017-10-27T03:58:33.662Z,928.49
2017-10-27T03:59:01.710Z,928.47
2017-10-27T03:59:29.731Z,928.45
2017-10-27T03:59:57.839Z,928.41
2017-10-27T04:00:25.972Z,928.4
2017-10-27T04:00:54.074Z,928.39
2017-10-27T04:01:21.968Z,928.33
2017-10-27T04:01:49.882Z,928.36
2017-10-27T04:02:18.006Z,928.29
2017-10-27T04:02:46.099Z,928.27
2017-10-27T04:03:14.118Z,928.23
2017-10-27T04:03:42.101Z,928.25
2017-10-27T04:04:10.086Z,928.2
2017-10-27T04:04:38.090Z,928.2
2017-10-27T04:05:06.000Z,928.21
2017-10-27T04:05:33.887Z,928.15
2017-10-27T04:06:01.886Z,928.14
2017-10-27T04:06:29.794Z,928.12
2017-10-27T04:06:57.853Z,928.16
2017-10-27T04:07:25.778Z,928.12
2017-10-27T04:07:53.759Z,928.09
2017-10-27T04:08:21.876Z,928.11
2017-10-27T04:08:50.551Z,928.13
2017-10-27T04:09:18.456Z,928.09
2017-10-27T04:09:46.593Z,928.1
2017-10-27T04:10:14.418Z,928.09
2017-10-27T04:10:42.543Z,928.09
2017-10-27T04:11:10.533Z,928.06
2017-10-27T04:11:38.456Z,928.04
2017-10-27T04:12:06.557Z,928.08
2017-10-27T04:12:34.579Z,928.08
2017-10-27T04:13:02.681Z,928.08
2017-10-27T04:13:30.791Z,928.07
2017-10-27T04:13:58.885Z,928.09
2017-10-27T04:14:26.801Z,928.08
2017-10-27T04:14:54.915Z,928.06
2017-10-27T04:15:22.941Z,928.09
2017-10-27T04:15:50.750Z,928.08
2017-10-27T04:16:18.776Z,928.06
2017-10-27T04:16:46.794Z,928.06
2017-10-27T04:17:14.925Z,928.09
2017-10-27T04:17:42.956Z,928.04
2017-10-27T04:18:11.068Z,928.04
2017-10-27T04:18:39.208Z,928.06
2017-10-27T04:19:07.347Z,928.03
2017-10-27T04:19:35.884Z,928.06
2017-10-27T04:20:03.902Z,928.06
2017-10-27T04:20:31.890Z,928.07
2017-10-27T04:20:59.918Z,928.07
2017-10-27T04:21:27.891Z,928.05
2017-10-27T04:21:55.702Z,928.02
2017-10-27T04:22:23.724Z,928.02
2017-10-27T04:22:51.822Z,928.03
2017-10-27T04:23:19.943Z,928.01
2017-10-27T04:23:47.955Z,927.97
2017-10-27T04:24:16.398Z,927.98
2017-10-27T04:24:44.311Z,927.95
2017-10-27T04:25:12.122Z,927.97
2017-10-27T04:25:40.134Z,927.96
2017-10-27T04:26:08.037Z,927.92
2017-10-27T04:26:35.952Z,927.96
2017-10-27T04:27:03.861Z,927.91
2017-10-27T04:27:31.856Z,927.87
2017-10-27T04:27:59.873Z,927.88
2017-10-27T04:28:27.896Z,927.88
2017-10-27T04:28:55.991Z,927.89
2017-10-27T04:29:24.127Z,927.88
2017-10-27T04:29:52.217Z,927.86
2017-10-27T04:30:20.336Z,927.85
2017-10-27T04:30:48.444Z,927.84
2017-10-27T04:31:16.564Z,927.81
2017-10-27T04:31:44.394Z,927.78
2017-10-27T04:32:12.301Z,927.79
2017-10-27T04:32:40.498Z,927.76
2017-10-27T04:33:08.541Z,927.74
2017-10-27T04:33:36.556Z,927.75
2017-10-27T04:34:04.670Z,927.73
2017-10-27T04:34:32.470Z,927.71
2017-10-27T04:35:00.595Z,927.7
2017-10-27T04:35:28.391Z,927.68
2017-10-27T04:35:56.505Z,927.68
2017-10-27T04:36:24.523Z,927.67
2017-10-27T04:36:52.449Z,927.68
2017-10-27T04:37:20.556Z,927.66
2017-10-27T04:37:48.631Z,927.64
2017-10-27T04:38:16.672Z,927.64
2017-10-27T04:38:44.771Z,927.65
2017-10-27T04:39:12.873Z,927.65
2017-10-27T04:39:40.867Z,927.6
2017-10-27T04:40:08.877Z,927.58
2017-10-27T04:40:36.993Z,927.59
2017-10-27T04:41:04.888Z,927.61
2017-10-27T04:41:33.021Z,927.59
2017-10-27T04:42:00.901Z,927.59
2017-10-27T04:42:28.919Z,927.55
2017-10-27T04:42:56.829Z,927.57
2017-10-27T04:43:24.930Z,927.56
2017-10-27T04:43:53.108Z,927.54
2017-10-27T04:44:21.219Z,927.55
2017-10-27T04:44:49.113Z,927.58
2017-10-27T04:45:17.119Z,927.59
2017-10-27T04:45:45.129Z,927.63
2017-10-27T04:46:13.146Z,927.58
2017-10-27T04:46:41.274Z,927.59
2017-10-27T04:47:09.362Z,927.58
2017-10-27T04:47:37.479Z,927.58
2017-10-27T04:48:05.482Z,927.57
2017-10-27T04:48:33.590Z,927.55
2017-10-27T04:49:01.602Z,927.55
2017-10-27T04:49:29.493Z,927.55
2017-10-27T04:49:57.506Z,927.53
2017-10-27T04:50:25.482Z,927.57
2017-10-27T04:50:53.488Z,927.6
2017-10-27T04:51:21.628Z,927.6
2017-10-27T04:51:49.753Z,927.57
2017-10-27T04:52:17.879Z,927.56
2017-10-27T04:52:45.915Z,927.53
2017-10-27T04:53:13.951Z,927.58
2017-10-27T04:53:41.868Z,927.56
2017-10-27T04:54:09.672Z,927.57
2017-10-27T04:54:37.802Z,927.59
2017-10-27T04:55:05.691Z,927.58
2017-10-27T04:55:33.612Z,927.55
2017-10-27T04:56:01.620Z,927.55
2017-10-27T04:56:29.547Z,927.56
2017-10-27T04:56:57.458Z,927.52
2017-10-27T04:57:25.572Z,927.52
2017-10-27T04:57:53.690Z,927.52
2017-10-27T04:58:21.730Z,927.48
2017-10-27T04:58:49.651Z,927.49
2017-10-27T04:59:17.773Z,927.48
2017-10-27T04:59:45.865Z,927.5
2017-10-27T05:00:13.864Z,927.46
2017-10-27T05:00:41.885Z,927.47
2017-10-27T05:01:09.883Z,927.51
2017-10-27T05:01:37.937Z,927.5
2017-10-27T05:02:05.847Z,927.48
2017-10-27T05:02:33.848Z,927.46
2017-10-27T05:03:01.968Z,927.42
2017-10-27T05:03:30.088Z,927.42
2017-10-27T05:03:58.005Z,927.44
2017-10-27T05:04:26.018Z,927.43
2017-10-27T05:04:54.133Z,927.41
2017-10-27T05:05:22.259Z,927.42
2017-10-27T05:05:50.288Z,927.43
2017-10-27T05:06:18.384Z,927.43
2017-10-27T05:06:46.302Z,927.43
2017-10-27T05:07:14.208Z,927.4
2017-10-27T05:07:42.331Z,927.42
2017-10-27T05:08:10.339Z,927.42
2017-10-27T05:08:38.157Z,927.38
2017-10-27T05:09:06.297Z,927.42
2017-10-27T05:09:34.419Z,927.35
2017-10-27T05:10:02.407Z,927.38
2017-10-27T05:10:30.541Z,927.32
2017-10-27T05:10:58.537Z,927.31
2017-10-27T05:11:26.549Z,927.33
2017-10-27T05:11:54.659Z,927.32
2017-10-27T05:12:22.666Z,927.32
2017-10-27T05:12:50.679Z,927.29
2017-10-27T05:13:18.689Z,927.28
2017-10-27T05:13:46.616Z,927.28
2017-10-27T05:14:14.707Z,927.28
2017-10-27T05:14:42.723Z,927.29
2017-10-27T05:15:10.649Z,927.27
2017-10-27T05:15:38.758Z,927.3
2017-10-27T05:16:06.765Z,927.27
2017-10-27T05:16:34.780Z,927.28
2017-10-27T05:17:02.707Z,927.27
2017-10-27T05:17:30.507Z,927.24
2017-10-27T05:17:58.437Z,927.28
2017-10-27T05:18:26.610Z,927.22
2017-10-27T05:18:54.952Z,927.22
2017-10-27T05:19:22.945Z,927.21
2017-10-27T05:19:50.953Z,927.21
2017-10-27T05:20:18.866Z,927.16
2017-10-27T05:20:46.905Z,927.16
2017-10-27T05:21:14.912Z,927.13
2017-10-27T05:21:42.926Z,927.15
2017-10-27T05:22:10.927Z,927.12
2017-10-27T05:22:39.032Z,927.14
2017-10-27T05:23:07.070Z,927.11
2017-10-27T05:23:35.100Z,927.09
2017-10-27T05:24:03.243Z,927.08
2017-10-27T05:24:31.387Z,927.07
2017-10-27T05:24:59.421Z,927.09
2017-10-27T05:25:27.520Z,927.08
2017-10-27T05:25:55.227Z,927.1
2017-10-27T05:26:23.249Z,927.12
2017-10-27T05:26:51.177Z,927.12
2017-10-27T05:27:19.210Z,927.15
2017-10-27T05:27:47.345Z,927.14
2017-10-27T05:28:15.252Z,927.15
2017-10-27T05:28:43.191Z,927.16
2017-10-27T05:29:11.221Z,927.19
2017-10-27T05:29:39.129Z,927.13
2017-10-27T05:30:07.260Z,927.17
2017-10-27T05:30:35.397Z,927.16
2017-10-27T05:31:03.401Z,927.18
2017-10-27T05:31:31.529Z,927.17
2017-10-27T05:31:59.529Z,927.16
2017-10-27T05:32:27.429Z,927.14
2017-10-27T05:32:55.534Z,927.14
2017-10-27T05:33:23.561Z,927.13
2017-10-27T05:33:51.371Z,927.11
2017-10-27T05:34:19.376Z,927.07
2017-10-27T05:34:47.376Z,927.03
2017-10-27T05:35:15.473Z,927.06
2017-10-27T05:35:43.489Z,927.05
2017-10-27T05:36:11.494Z,927.02
2017-10-27T05:36:39.519Z,926.97
2017-10-27T05:37:07.630Z,926.95
2017-10-27T05:37:35.535Z,926.99
2017-10-27T05:38:03.452Z,926.94
2017-10-27T05:38:31.454Z,926.99
2017-10-27T05:38:59.572Z,927.01
2017-10-27T05:39:27.573Z,927.01
2017-10-27T05:39:55.513Z,927.01
2017-10-27T05:40:23.537Z,927
2017-10-27T05:40:51.444Z,926.99
2017-10-27T05:41:19.451Z,927.02
2017-10-27T05:41:47.495Z,927.04
2017-10-27T05:42:15.506Z,927.02
2017-10-27T05:42:43.631Z,927.01
2017-10-27T05:43:11.614Z,927.02
2017-10-27T05:43:39.631Z,927
2017-10-27T05:44:07.746Z,927.03
2017-10-27T05:44:35.879Z,927.01
2017-10-27T05:45:03.924Z,927.03
2017-10-27T05:45:32.050Z,927.02
2017-10-27T05:45:59.964Z,927.02
2017-10-27T05:46:27.969Z,927.04
2017-10-27T05:46:56.115Z,927.07
2017-10-27T05:47:24.139Z,927.04
2017-10-27T05:47:52.090Z,927.07
2017-10-27T05:48:20.134Z,927.07
2017-10-27T05:48:48.056Z,927.08
2017-10-27T05:49:16.203Z,927.11
2017-10-27T05:49:44.317Z,927.11
2017-10-27T05:50:12.245Z,927.14
2017-10-27T05:50:40.339Z,927.13
2017-10-27T05:51:08.062Z,927.1